createdAt,value
2019-04-25T00:00:01.966Z,18.41
2019-04-25T00:01:03.339Z,18.27
2019-04-25T00:01:42.192Z,18.42
2019-04-25T00:02:42.303Z,18.43
2019-04-25T00:03:42.208Z,18.37
2019-04-25T00:05:03.206Z,18.30
2019-04-25T00:06:02.378Z,18.27
2019-04-25T00:06:41.121Z,18.28
2019-04-25T00:07:42.497Z,18.45
2019-04-25T00:08:41.295Z,18.39
2019-04-25T00:10:01.797Z,18.45
2019-04-25T00:11:01.868Z,18.42
2019-04-25T00:11:43.010Z,18.57
2019-04-25T00:12:42.379Z,18.55
2019-04-25T00:13:41.925Z,18.53
2019-04-25T00:15:01.918Z,18.63
2019-04-25T00:16:01.967Z,18.53
2019-04-25T00:16:41.372Z,18.41
2019-04-25T00:17:42.303Z,18.18
2019-04-25T00:18:42.767Z,18.30
2019-04-25T00:20:02.068Z,18.31
2019-04-25T00:21:02.078Z,18.34
2019-04-25T00:21:42.167Z,18.42
2019-04-25T00:22:42.543Z,18.45
2019-04-25T00:23:42.583Z,18.48
2019-04-25T00:25:14.301Z,18.46
2019-04-25T00:26:02.209Z,18.55
2019-04-25T00:26:43.214Z,18.49
2019-04-25T00:27:43.533Z,18.41
2019-04-25T00:28:43.503Z,18.45
2019-04-25T00:30:02.321Z,18.46
2019-04-25T00:31:02.367Z,18.55
2019-04-25T00:31:43.746Z,18.58
2019-04-25T00:32:42.308Z,18.58
2019-04-25T00:33:43.693Z,18.48
2019-04-25T00:35:02.502Z,18.57
2019-04-25T00:36:03.843Z,18.64
2019-04-25T00:36:43.511Z,18.57
2019-04-25T00:37:43.275Z,18.57
2019-04-25T00:38:42.934Z,18.55
2019-04-25T00:40:02.618Z,18.66
2019-04-25T00:41:02.613Z,18.63
2019-04-25T00:41:44.104Z,18.64
2019-04-25T00:42:42.829Z,18.60
2019-04-25T00:43:43.004Z,18.63
2019-04-25T00:45:02.712Z,18.61
2019-04-25T00:46:03.584Z,18.64
2019-04-25T00:46:43.295Z,18.70
2019-04-25T00:47:43.490Z,18.64
2019-04-25T00:48:43.148Z,18.60
2019-04-25T00:50:04.176Z,18.60
2019-04-25T00:51:02.898Z,18.46
2019-04-25T00:51:43.424Z,18.58
2019-04-25T00:52:43.555Z,18.43
2019-04-25T00:53:43.370Z,18.42
2019-04-25T00:55:02.974Z,18.33
2019-04-25T00:56:03.010Z,18.24
2019-04-25T00:56:44.772Z,18.09
2019-04-25T00:57:43.485Z,18.11
2019-04-25T00:58:43.096Z,18.12
2019-04-25T01:00:03.113Z,18.18
2019-04-25T01:01:03.144Z,18.24
2019-04-25T01:01:44.206Z,18.13
2019-04-25T01:02:42.354Z,18.13
2019-04-25T01:03:43.338Z,17.98
2019-04-25T01:05:03.372Z,18.16
2019-04-25T01:06:03.818Z,18.09
2019-04-25T01:06:42.290Z,18.13
2019-04-25T01:07:42.340Z,18.18
2019-04-25T01:08:42.344Z,18.19
2019-04-25T01:10:03.381Z,18.24
2019-04-25T01:11:03.418Z,18.23
2019-04-25T01:11:42.518Z,18.21
2019-04-25T01:12:42.438Z,18.08
2019-04-25T01:13:42.460Z,18.08
2019-04-25T01:15:03.526Z,17.95
2019-04-25T01:16:04.063Z,18.06
2019-04-25T01:16:42.562Z,18.09
2019-04-25T01:17:42.552Z,18.11
2019-04-25T01:18:43.641Z,18.06
2019-04-25T01:20:04.168Z,17.94
2019-04-25T01:21:04.452Z,18.05
2019-04-25T01:21:43.917Z,17.93
2019-04-25T01:22:43.997Z,18.05
2019-04-25T01:23:43.486Z,18.15
2019-04-25T01:25:03.903Z,18.06
2019-04-25T01:26:03.811Z,18.13
2019-04-25T01:26:43.884Z,18.13
2019-04-25T01:27:43.324Z,18.09
2019-04-25T01:28:43.934Z,17.97
2019-04-25T01:30:04.311Z,18.03
2019-04-25T01:31:03.938Z,18.02
2019-04-25T01:31:43.431Z,18.06
2019-04-25T01:32:44.634Z,17.94
2019-04-25T01:33:43.313Z,18.06
2019-04-25T01:35:04.155Z,18.12
2019-04-25T01:36:04.065Z,18.05
2019-04-25T01:36:44.339Z,18.05
2019-04-25T01:37:43.812Z,17.97
2019-04-25T01:38:43.359Z,18.06
2019-04-25T01:40:04.254Z,18.02
2019-04-25T01:41:04.204Z,18.08
2019-04-25T01:41:44.163Z,18.09
2019-04-25T01:42:43.845Z,17.94
2019-04-25T01:43:43.671Z,17.97
2019-04-25T01:45:04.307Z,17.97
2019-04-25T01:46:04.348Z,18.03
2019-04-25T01:46:44.193Z,18.03
2019-04-25T01:47:45.397Z,17.91
2019-04-25T01:48:43.450Z,18.03
2019-04-25T01:50:04.437Z,18.09
2019-04-25T01:51:04.455Z,17.98
2019-04-25T01:51:43.721Z,18.08
2019-04-25T01:52:43.517Z,18.02
2019-04-25T01:53:44.151Z,18.08
2019-04-25T01:55:05.550Z,18.12
2019-04-25T01:56:07.240Z,18.12
2019-04-25T01:56:44.295Z,18.06
2019-04-25T01:57:45.167Z,18.06
2019-04-25T01:58:43.877Z,17.98
2019-04-25T02:00:04.712Z,18.02
2019-04-25T02:01:04.760Z,18.11
2019-04-25T02:01:44.031Z,18.12
2019-04-25T02:02:43.777Z,18.11
2019-04-25T02:03:44.209Z,18.21
2019-04-25T02:05:05.115Z,18.12
2019-04-25T02:06:05.072Z,18.23
2019-04-25T02:06:43.851Z,18.12
2019-04-25T02:07:44.420Z,18.16
2019-04-25T02:08:44.101Z,18.23
2019-04-25T02:10:04.973Z,18.24
2019-04-25T02:11:05.005Z,18.21
2019-04-25T02:11:44.023Z,18.24
2019-04-25T02:12:44.033Z,18.21
2019-04-25T02:13:44.065Z,18.28
2019-04-25T02:15:06.261Z,18.28
2019-04-25T02:16:05.313Z,18.27
2019-04-25T02:16:44.141Z,18.24
2019-04-25T02:17:44.167Z,18.18
2019-04-25T02:18:44.190Z,18.23
2019-04-25T02:20:05.262Z,18.16
2019-04-25T02:21:05.258Z,18.12
2019-04-25T02:21:44.283Z,18.12
2019-04-25T02:22:44.301Z,17.94
2019-04-25T02:23:44.347Z,17.91
2019-04-25T02:25:05.364Z,17.82
2019-04-25T02:26:15.213Z,17.80
2019-04-25T02:26:44.410Z,17.75
2019-04-25T02:27:44.443Z,17.76
2019-04-25T02:28:44.446Z,17.73
2019-04-25T02:30:06.927Z,17.72
2019-04-25T02:31:08.666Z,17.76
2019-04-25T02:31:45.018Z,17.72
2019-04-25T02:32:44.568Z,17.69
2019-04-25T02:33:44.580Z,17.80
2019-04-25T02:35:09.085Z,17.82
2019-04-25T02:36:08.697Z,17.75
2019-04-25T02:36:47.043Z,17.84
2019-04-25T02:37:45.177Z,17.80
2019-04-25T02:38:44.726Z,17.82
2019-04-25T02:40:07.945Z,17.82
2019-04-25T02:41:08.356Z,17.86
2019-04-25T02:41:44.796Z,17.84
2019-04-25T02:42:44.826Z,17.82
2019-04-25T02:43:45.194Z,17.75
2019-04-25T02:45:08.402Z,17.72
2019-04-25T02:46:07.471Z,17.80
2019-04-25T02:46:45.048Z,17.91
2019-04-25T02:47:46.245Z,17.88
2019-04-25T02:48:44.977Z,17.88
2019-04-25T02:50:08.568Z,17.82
2019-04-25T02:51:07.398Z,17.87
2019-04-25T02:51:45.164Z,17.90
2019-04-25T02:52:45.074Z,17.97
2019-04-25T02:53:45.146Z,17.98
2019-04-25T02:55:10.320Z,18.03
2019-04-25T02:56:25.725Z,17.95
2019-04-25T02:56:46.661Z,17.91
2019-04-25T02:57:45.220Z,17.73
2019-04-25T02:58:45.251Z,17.78
2019-04-25T03:00:08.337Z,17.79
2019-04-25T03:01:16.239Z,17.72
2019-04-25T03:01:45.316Z,17.72
2019-04-25T03:02:45.320Z,17.72
2019-04-25T03:03:45.390Z,17.71
2019-04-25T03:05:09.560Z,17.71
2019-04-25T03:06:09.274Z,17.68
2019-04-25T03:06:45.660Z,17.71
2019-04-25T03:07:45.508Z,17.69
2019-04-25T03:08:45.492Z,17.71
2019-04-25T03:10:08.540Z,17.66
2019-04-25T03:11:07.868Z,17.68
2019-04-25T03:11:47.588Z,17.63
2019-04-25T03:12:45.613Z,17.68
2019-04-25T03:13:45.625Z,17.57
2019-04-25T03:15:09.710Z,17.60
2019-04-25T03:16:09.118Z,17.59
2019-04-25T03:16:45.709Z,17.71
2019-04-25T03:17:45.747Z,17.69
2019-04-25T03:18:45.762Z,17.66
2019-04-25T03:20:09.518Z,17.65
2019-04-25T03:21:13.500Z,17.71
2019-04-25T03:21:45.838Z,17.71
2019-04-25T03:22:45.863Z,17.84
2019-04-25T03:23:46.454Z,17.87
2019-04-25T03:25:10.773Z,17.82
2019-04-25T03:26:07.537Z,17.79
2019-04-25T03:26:45.984Z,17.80
2019-04-25T03:27:46.018Z,17.75
2019-04-25T03:28:46.024Z,17.73
2019-04-25T03:30:11.232Z,17.72
2019-04-25T03:31:13.362Z,17.69
2019-04-25T03:31:46.172Z,17.65
2019-04-25T03:32:46.140Z,17.69
2019-04-25T03:33:46.404Z,17.71
2019-04-25T03:35:07.203Z,17.71
2019-04-25T03:36:07.819Z,17.73
2019-04-25T03:36:46.212Z,17.75
2019-04-25T03:37:46.278Z,17.63
2019-04-25T03:38:46.287Z,17.66
2019-04-25T03:40:07.883Z,17.60
2019-04-25T03:41:07.353Z,17.56
2019-04-25T03:41:46.358Z,17.59
2019-04-25T03:42:46.394Z,17.59
2019-04-25T03:43:46.416Z,17.66
2019-04-25T03:45:07.463Z,17.66
2019-04-25T03:46:08.173Z,17.60
2019-04-25T03:46:46.502Z,17.54
2019-04-25T03:47:46.518Z,17.60
2019-04-25T03:48:46.558Z,17.53
2019-04-25T03:50:08.187Z,17.54
2019-04-25T03:51:08.000Z,17.57
2019-04-25T03:51:46.623Z,17.41
2019-04-25T03:52:46.642Z,17.49
2019-04-25T03:53:46.671Z,17.59
2019-04-25T03:55:08.595Z,17.56
2019-04-25T03:56:08.610Z,17.56
2019-04-25T03:56:53.611Z,17.49
2019-04-25T03:57:46.782Z,17.41
2019-04-25T03:58:46.805Z,17.46
2019-04-25T04:00:08.636Z,17.39
2019-04-25T04:01:09.247Z,17.41
2019-04-25T04:01:46.893Z,17.42
2019-04-25T04:02:46.894Z,17.42
2019-04-25T04:03:46.937Z,17.50
2019-04-25T04:05:08.372Z,17.42
2019-04-25T04:06:08.651Z,17.56
2019-04-25T04:06:47.075Z,17.37
2019-04-25T04:07:47.039Z,17.34
2019-04-25T04:08:47.103Z,17.38
2019-04-25T04:10:08.112Z,17.35
2019-04-25T04:11:08.687Z,17.30
2019-04-25T04:11:47.163Z,17.23
2019-04-25T04:12:47.165Z,17.27
2019-04-25T04:13:47.197Z,17.28
2019-04-25T04:15:08.325Z,17.27
2019-04-25T04:16:08.473Z,17.27
2019-04-25T04:16:47.269Z,17.31
2019-04-25T04:17:47.301Z,17.32
2019-04-25T04:18:47.329Z,17.22
2019-04-25T04:20:08.858Z,17.24
2019-04-25T04:21:08.971Z,17.28
2019-04-25T04:21:47.393Z,17.24
2019-04-25T04:22:47.432Z,17.32
2019-04-25T04:23:47.455Z,17.27
2019-04-25T04:25:08.503Z,17.31
2019-04-25T04:26:09.494Z,17.27
2019-04-25T04:26:47.531Z,17.14
2019-04-25T04:27:47.545Z,17.19
2019-04-25T04:28:47.583Z,17.12
2019-04-25T04:30:08.621Z,17.16
2019-04-25T04:31:08.673Z,17.17
2019-04-25T04:31:47.672Z,17.16
2019-04-25T04:32:47.689Z,17.16
2019-04-25T04:33:47.725Z,17.16
2019-04-25T04:35:08.755Z,17.19
2019-04-25T04:36:08.799Z,17.17
2019-04-25T04:36:47.788Z,17.19
2019-04-25T04:37:47.811Z,17.12
2019-04-25T04:38:47.936Z,17.10
2019-04-25T04:40:09.618Z,17.07
2019-04-25T04:41:09.706Z,17.07
2019-04-25T04:41:47.919Z,16.98
2019-04-25T04:42:47.953Z,16.98
2019-04-25T04:43:47.988Z,16.94
2019-04-25T04:45:10.110Z,16.87
2019-04-25T04:46:09.992Z,16.89
2019-04-25T04:46:48.069Z,16.89
2019-04-25T04:47:48.074Z,17.05
2019-04-25T04:48:48.127Z,17.01
2019-04-25T04:50:09.155Z,16.98
2019-04-25T04:51:09.183Z,16.97
2019-04-25T04:51:48.143Z,16.98
2019-04-25T04:52:48.232Z,16.83
2019-04-25T04:53:48.238Z,16.83
2019-04-25T04:55:11.198Z,16.83
2019-04-25T04:56:09.677Z,16.79
2019-04-25T04:56:48.311Z,16.68
2019-04-25T04:57:48.345Z,16.82
2019-04-25T04:58:48.350Z,16.83
2019-04-25T05:00:10.931Z,16.87
2019-04-25T05:01:10.227Z,16.82
2019-04-25T05:01:48.453Z,16.82
2019-04-25T05:02:48.458Z,16.76
2019-04-25T05:03:48.494Z,16.80
2019-04-25T05:05:09.513Z,16.76
2019-04-25T05:06:09.556Z,16.79
2019-04-25T05:06:48.551Z,16.69
2019-04-25T05:07:48.622Z,16.69
2019-04-25T05:08:48.631Z,16.76
2019-04-25T05:10:10.427Z,16.80
2019-04-25T05:11:09.710Z,16.80
2019-04-25T05:11:48.702Z,16.80
2019-04-25T05:12:48.720Z,16.76
2019-04-25T05:13:48.760Z,16.79
2019-04-25T05:15:09.802Z,16.65
2019-04-25T05:16:09.820Z,16.66
2019-04-25T05:16:49.590Z,16.72
2019-04-25T05:17:48.855Z,16.65
2019-04-25T05:18:48.868Z,16.76
2019-04-25T05:20:09.934Z,16.66
2019-04-25T05:21:09.952Z,16.79
2019-04-25T05:21:48.975Z,16.76
2019-04-25T05:22:48.978Z,16.87
2019-04-25T05:23:49.022Z,16.79
2019-04-25T05:25:10.064Z,16.77
2019-04-25T05:26:10.106Z,16.82
2019-04-25T05:26:49.094Z,16.73
2019-04-25T05:27:59.557Z,16.69
2019-04-25T05:28:49.157Z,16.61
2019-04-25T05:30:10.198Z,16.69
2019-04-25T05:31:10.205Z,16.61
2019-04-25T05:31:49.212Z,16.57
2019-04-25T05:32:49.292Z,16.84
2019-04-25T05:33:49.264Z,16.77
2019-04-25T05:35:10.315Z,16.89
2019-04-25T05:36:10.332Z,16.95
2019-04-25T05:36:49.341Z,16.98
2019-04-25T05:37:49.368Z,17.02
2019-04-25T05:38:49.392Z,16.89
2019-04-25T05:40:10.444Z,16.84
2019-04-25T05:41:10.492Z,16.87
2019-04-25T05:41:49.466Z,16.77
2019-04-25T05:42:49.508Z,16.83
2019-04-25T05:43:49.551Z,16.77
2019-04-25T05:45:10.562Z,16.76
2019-04-25T05:46:10.586Z,16.86
2019-04-25T05:46:49.593Z,16.87
2019-04-25T05:47:49.633Z,16.92
2019-04-25T05:48:49.663Z,16.97
2019-04-25T05:50:10.710Z,17.01
2019-04-25T05:51:10.722Z,16.95
2019-04-25T05:51:49.732Z,16.95
2019-04-25T05:52:49.746Z,16.84
2019-04-25T05:53:49.776Z,16.87
2019-04-25T05:55:10.835Z,17.04
2019-04-25T05:56:10.856Z,17.14
2019-04-25T05:56:49.847Z,17.19
2019-04-25T05:57:50.232Z,17.10
2019-04-25T05:58:49.935Z,17.24
2019-04-25T06:00:10.976Z,17.30
2019-04-25T06:01:10.982Z,17.32
2019-04-25T06:01:50.007Z,17.17
2019-04-25T06:02:50.015Z,17.10
2019-04-25T06:03:50.047Z,17.24
2019-04-25T06:05:11.114Z,17.28
2019-04-25T06:06:11.120Z,17.20
2019-04-25T06:06:50.136Z,17.28
2019-04-25T06:07:50.155Z,17.37
2019-04-25T06:08:50.181Z,17.56
2019-04-25T06:10:11.256Z,17.59
2019-04-25T06:11:11.277Z,17.49
2019-04-25T06:11:50.293Z,17.50
2019-04-25T06:12:50.288Z,17.60
2019-04-25T06:13:50.281Z,17.60
2019-04-25T06:15:12.838Z,17.69
2019-04-25T06:16:11.454Z,17.53
2019-04-25T06:16:50.397Z,17.50
2019-04-25T06:17:50.428Z,17.57
2019-04-25T06:18:50.437Z,17.65
2019-04-25T06:20:11.481Z,17.65
2019-04-25T06:21:13.203Z,17.69
2019-04-25T06:21:50.531Z,17.72
2019-04-25T06:22:50.543Z,17.71
2019-04-25T06:23:50.640Z,17.80
2019-04-25T06:25:13.735Z,17.88
2019-04-25T06:26:22.918Z,17.86
2019-04-25T06:26:50.621Z,17.88
2019-04-25T06:27:56.568Z,17.69
2019-04-25T06:28:56.994Z,17.76
2019-04-25T06:30:11.731Z,17.84
2019-04-25T06:31:11.767Z,17.86
2019-04-25T06:31:50.781Z,17.88
2019-04-25T06:32:50.815Z,17.82
2019-04-25T06:33:50.856Z,17.87
2019-04-25T06:35:11.861Z,17.87
2019-04-25T06:36:11.916Z,17.90
2019-04-25T06:36:50.900Z,17.91
2019-04-25T06:37:50.933Z,17.90
2019-04-25T06:38:50.957Z,17.97
2019-04-25T06:40:13.553Z,17.94
2019-04-25T06:41:13.350Z,17.91
2019-04-25T06:41:51.041Z,18.06
2019-04-25T06:42:51.085Z,18.06
2019-04-25T06:43:51.093Z,18.09
2019-04-25T06:45:13.483Z,18.06
2019-04-25T06:46:13.914Z,18.05
2019-04-25T06:46:51.180Z,17.93
2019-04-25T06:47:51.208Z,18.03
2019-04-25T06:48:51.234Z,17.90
2019-04-25T06:50:13.656Z,18.06
2019-04-25T06:51:13.442Z,17.91
2019-04-25T06:51:51.306Z,17.79
2019-04-25T06:52:51.355Z,17.73
2019-04-25T06:53:51.352Z,17.86
2019-04-25T06:55:13.988Z,17.82
2019-04-25T06:56:13.701Z,17.82
2019-04-25T06:56:51.487Z,17.86
2019-04-25T06:57:51.460Z,17.71
2019-04-25T06:58:51.490Z,17.78
2019-04-25T07:00:13.932Z,17.86
2019-04-25T07:01:13.515Z,17.84
2019-04-25T07:01:51.568Z,17.91
2019-04-25T07:02:53.138Z,17.88
2019-04-25T07:03:51.608Z,18.08
2019-04-25T07:05:24.503Z,18.16
2019-04-25T07:06:12.968Z,18.36
2019-04-25T07:06:53.415Z,18.36
2019-04-25T07:07:53.385Z,18.28
2019-04-25T07:08:51.746Z,18.31
2019-04-25T07:10:13.325Z,18.33
2019-04-25T07:11:13.994Z,18.19
2019-04-25T07:11:51.828Z,18.21
2019-04-25T07:12:51.842Z,18.27
2019-04-25T07:13:53.584Z,18.28
2019-04-25T07:15:13.761Z,18.37
2019-04-25T07:16:13.375Z,18.34
2019-04-25T07:16:53.211Z,18.28
2019-04-25T07:17:53.945Z,18.36
2019-04-25T07:18:53.334Z,18.24
2019-04-25T07:20:13.828Z,18.27
2019-04-25T07:21:14.223Z,18.24
2019-04-25T07:21:52.092Z,18.19
2019-04-25T07:22:53.660Z,18.27
2019-04-25T07:23:52.142Z,18.27
2019-04-25T07:25:13.248Z,18.16
2019-04-25T07:26:13.537Z,18.13
2019-04-25T07:26:53.456Z,18.15
2019-04-25T07:27:53.462Z,18.18
2019-04-25T07:28:53.832Z,18.23
2019-04-25T07:30:13.513Z,18.24
2019-04-25T07:31:13.396Z,18.18
2019-04-25T07:31:53.579Z,18.28
2019-04-25T07:32:53.981Z,18.28
2019-04-25T07:33:53.236Z,18.28
2019-04-25T07:35:13.581Z,18.23
2019-04-25T07:36:13.827Z,18.31
2019-04-25T07:36:53.459Z,18.33
2019-04-25T07:37:53.917Z,18.36
2019-04-25T07:39:05.152Z,18.30
2019-04-25T07:40:13.949Z,18.28
2019-04-25T07:41:14.704Z,18.27
2019-04-25T07:41:54.008Z,18.33
2019-04-25T07:42:53.609Z,18.41
2019-04-25T07:43:53.305Z,18.43
2019-04-25T07:45:14.077Z,18.48
2019-04-25T07:46:13.768Z,18.45
2019-04-25T07:46:54.177Z,18.43
2019-04-25T07:47:54.043Z,18.57
2019-04-25T07:48:53.541Z,18.63
2019-04-25T07:50:15.261Z,18.64
2019-04-25T07:51:16.317Z,18.81
2019-04-25T07:51:53.700Z,18.68
2019-04-25T07:52:53.854Z,18.81
2019-04-25T07:53:53.487Z,18.91
2019-04-25T07:55:13.971Z,18.97
2019-04-25T07:56:14.309Z,19.01
2019-04-25T07:56:54.836Z,19.19
2019-04-25T07:57:54.040Z,19.08
2019-04-25T07:58:54.744Z,19.07
2019-04-25T08:00:14.087Z,19.12
2019-04-25T08:01:14.160Z,19.11
2019-04-25T08:01:53.525Z,19.19
2019-04-25T08:02:54.293Z,19.20
2019-04-25T08:03:53.746Z,19.20
2019-04-25T08:05:14.490Z,19.34
2019-04-25T08:06:14.283Z,19.52
2019-04-25T08:06:54.264Z,19.60
2019-04-25T08:07:53.606Z,19.52
2019-04-25T08:08:54.468Z,19.53
2019-04-25T08:10:14.361Z,19.52
2019-04-25T08:11:14.389Z,19.56
2019-04-25T08:11:54.848Z,19.52
2019-04-25T08:12:53.591Z,19.49
2019-04-25T08:13:53.463Z,19.60
2019-04-25T08:15:14.484Z,19.59
2019-04-25T08:16:14.620Z,19.56
2019-04-25T08:16:53.797Z,19.56
2019-04-25T08:17:54.032Z,19.66
2019-04-25T08:18:53.962Z,19.89
2019-04-25T08:20:15.220Z,20.14
2019-04-25T08:21:15.353Z,20.15
2019-04-25T08:21:53.738Z,20.12
2019-04-25T08:22:58.462Z,20.18
2019-04-25T08:23:53.707Z,20.19
2019-04-25T08:25:14.776Z,20.29
2019-04-25T08:26:14.789Z,20.08
2019-04-25T08:26:53.781Z,19.99
2019-04-25T08:27:55.124Z,19.99
2019-04-25T08:28:57.166Z,19.97
2019-04-25T08:30:14.878Z,20.12
2019-04-25T08:31:14.948Z,20.26
2019-04-25T08:31:53.939Z,20.27
2019-04-25T08:32:54.136Z,20.22
2019-04-25T08:33:53.995Z,20.29
2019-04-25T08:35:16.084Z,20.44
2019-04-25T08:36:15.047Z,20.59
2019-04-25T08:36:54.323Z,20.56
2019-04-25T08:37:54.114Z,20.63
2019-04-25T08:38:55.361Z,20.90
2019-04-25T08:40:15.175Z,21.03
2019-04-25T08:41:15.188Z,21.10
2019-04-25T08:41:54.196Z,21.26
2019-04-25T08:42:54.226Z,21.44
2019-04-25T08:43:54.519Z,21.53
2019-04-25T08:45:15.290Z,21.56
2019-04-25T08:46:15.325Z,21.40
2019-04-25T08:46:54.337Z,21.29
2019-04-25T08:47:54.349Z,21.14
2019-04-25T08:48:54.409Z,21.30
2019-04-25T08:50:27.027Z,21.53
2019-04-25T08:51:15.465Z,21.66
2019-04-25T08:51:55.725Z,22.08
2019-04-25T08:52:54.504Z,21.97
2019-04-25T08:53:54.523Z,21.72
2019-04-25T08:55:15.573Z,21.60
2019-04-25T08:56:15.623Z,21.33
2019-04-25T08:56:54.695Z,21.10
2019-04-25T08:57:54.623Z,21.05
2019-04-25T08:59:03.621Z,21.04
2019-04-25T09:00:15.716Z,20.90
2019-04-25T09:01:15.735Z,20.88
2019-04-25T09:01:54.763Z,21.08
2019-04-25T09:02:54.763Z,21.32
2019-04-25T09:03:54.807Z,21.75
2019-04-25T09:05:16.498Z,21.83
2019-04-25T09:06:15.963Z,21.69
2019-04-25T09:06:55.278Z,21.66
2019-04-25T09:07:54.914Z,21.63
2019-04-25T09:08:54.946Z,21.72
2019-04-25T09:10:15.983Z,21.60
2019-04-25T09:11:16.019Z,21.41
2019-04-25T09:11:55.049Z,21.59
2019-04-25T09:12:55.027Z,21.66
2019-04-25T09:13:55.087Z,21.66
2019-04-25T09:15:16.121Z,21.72
2019-04-25T09:16:16.165Z,21.68
2019-04-25T09:16:55.142Z,21.63
2019-04-25T09:17:55.197Z,21.75
2019-04-25T09:18:55.222Z,21.92
2019-04-25T09:20:17.534Z,22.41
2019-04-25T09:21:16.296Z,22.61
2019-04-25T09:21:55.314Z,23.04
2019-04-25T09:22:55.311Z,22.91
2019-04-25T09:23:55.612Z,22.84
2019-04-25T09:25:16.422Z,23.18
2019-04-25T09:26:16.425Z,23.07
2019-04-25T09:26:55.504Z,22.76
2019-04-25T09:27:55.472Z,22.53
2019-04-25T09:28:55.495Z,22.47
2019-04-25T09:30:16.546Z,22.51
2019-04-25T09:31:16.546Z,22.63
2019-04-25T09:31:55.574Z,22.92
2019-04-25T09:32:55.606Z,23.11
2019-04-25T09:33:55.653Z,23.23
2019-04-25T09:35:16.690Z,23.29
2019-04-25T09:36:16.795Z,23.33
2019-04-25T09:36:55.900Z,23.04
2019-04-25T09:37:55.736Z,22.99
2019-04-25T09:38:55.772Z,23.10
2019-04-25T09:40:16.828Z,23.17
2019-04-25T09:41:16.856Z,23.13
2019-04-25T09:41:55.922Z,23.25
2019-04-25T09:42:55.926Z,23.14
2019-04-25T09:43:55.938Z,23.17
2019-04-25T09:45:16.977Z,23.56
2019-04-25T09:46:17.001Z,23.73
2019-04-25T09:46:55.989Z,23.96
2019-04-25T09:47:56.020Z,23.92
2019-04-25T09:48:56.058Z,24.06
2019-04-25T09:50:17.610Z,24.55
2019-04-25T09:51:17.134Z,25.30
2019-04-25T09:51:56.150Z,25.99
2019-04-25T09:52:56.144Z,26.15
2019-04-25T09:53:56.211Z,26.49
2019-04-25T09:55:17.254Z,26.76
2019-04-25T09:56:17.271Z,25.91
2019-04-25T09:56:56.806Z,25.22
2019-04-25T09:57:56.318Z,25.30
2019-04-25T09:58:56.357Z,26.03
2019-04-25T10:00:17.384Z,26.51
2019-04-25T10:01:17.439Z,26.98
2019-04-25T10:01:56.433Z,27.78
2019-04-25T10:02:56.485Z,29.22
2019-04-25T10:03:56.490Z,28.77
2019-04-25T10:05:17.550Z,30.02
2019-04-25T10:06:17.562Z,29.95
2019-04-25T10:06:56.621Z,28.64
2019-04-25T10:07:56.618Z,29.77
2019-04-25T10:08:56.643Z,30.99
2019-04-25T10:10:17.678Z,33.40
2019-04-25T10:11:17.712Z,34.94
2019-04-25T10:11:56.767Z,35.60
2019-04-25T10:12:56.784Z,34.62
2019-04-25T10:13:56.783Z,31.07
2019-04-25T10:15:17.825Z,30.43
2019-04-25T10:16:17.877Z,29.92
2019-04-25T10:16:56.877Z,28.41
2019-04-25T10:17:56.915Z,28.40
2019-04-25T10:18:56.967Z,27.81
2019-04-25T10:20:18.037Z,28.38
2019-04-25T10:21:18.049Z,27.61
2019-04-25T10:21:57.059Z,27.64
2019-04-25T10:22:57.090Z,27.67
2019-04-25T10:23:57.119Z,27.50
2019-04-25T10:25:18.169Z,27.82
2019-04-25T10:26:18.193Z,28.06
2019-04-25T10:26:57.213Z,28.74
2019-04-25T10:27:57.249Z,30.39
2019-04-25T10:28:57.289Z,30.54
2019-04-25T10:30:23.116Z,30.17
2019-04-25T10:31:18.445Z,29.87
2019-04-25T10:31:57.359Z,29.58
2019-04-25T10:32:57.419Z,30.48
2019-04-25T10:33:57.441Z,29.87
2019-04-25T10:35:18.473Z,31.48
2019-04-25T10:36:18.479Z,31.98
2019-04-25T10:36:57.519Z,32.20
2019-04-25T10:37:57.562Z,32.34
2019-04-25T10:39:07.598Z,32.61
2019-04-25T10:40:18.634Z,32.51
2019-04-25T10:41:21.458Z,33.35
2019-04-25T10:41:57.705Z,33.09
2019-04-25T10:42:57.703Z,34.25
2019-04-25T10:43:57.749Z,32.91
2019-04-25T10:45:23.166Z,32.64
2019-04-25T10:46:18.854Z,31.48
2019-04-25T10:46:57.854Z,33.29
2019-04-25T10:47:57.914Z,32.79
2019-04-25T10:48:57.923Z,32.68
2019-04-25T10:50:18.992Z,34.41
2019-04-25T10:51:19.022Z,35.30
2019-04-25T10:51:58.036Z,34.66
2019-04-25T10:52:58.076Z,36.39
2019-04-25T10:53:58.136Z,35.01
2019-04-25T10:55:19.154Z,32.44
2019-04-25T10:56:19.220Z,34.19
2019-04-25T10:56:58.288Z,33.48
2019-04-25T10:57:58.230Z,33.26
2019-04-25T10:58:58.300Z,34.13
2019-04-25T11:00:19.370Z,36.75
2019-04-25T11:01:19.383Z,37.80
2019-04-25T11:01:58.396Z,37.03
2019-04-25T11:02:58.434Z,38.35
2019-04-25T11:03:58.491Z,39.52
2019-04-25T11:05:19.520Z,39.85
2019-04-25T11:06:19.551Z,39.08
2019-04-25T11:06:58.585Z,40.36
2019-04-25T11:07:58.588Z,39.56
2019-04-25T11:08:58.652Z,36.32
2019-04-25T11:10:19.710Z,35.25
2019-04-25T11:11:19.752Z,35.97
2019-04-25T11:11:58.779Z,38.20
2019-04-25T11:12:58.862Z,39.51
2019-04-25T11:13:58.841Z,39.30
2019-04-25T11:15:19.878Z,38.88
2019-04-25T11:16:19.948Z,37.78
2019-04-25T11:16:59.000Z,36.75
2019-04-25T11:17:58.996Z,37.10
2019-04-25T11:18:59.054Z,38.85
2019-04-25T11:20:20.096Z,40.08
2019-04-25T11:21:20.160Z,40.10
2019-04-25T11:21:59.146Z,40.58
2019-04-25T11:22:59.210Z,40.54
2019-04-25T11:23:59.246Z,38.95
2019-04-25T11:25:20.320Z,39.54
2019-04-25T11:26:20.329Z,40.73
2019-04-25T11:26:59.365Z,39.82
2019-04-25T11:27:59.475Z,40.13
2019-04-25T11:28:59.478Z,39.22
2019-04-25T11:30:20.466Z,39.51
2019-04-25T11:31:20.544Z,37.34
2019-04-25T11:31:59.566Z,36.44
2019-04-25T11:32:59.552Z,36.09
2019-04-25T11:33:59.615Z,34.66
2019-04-25T11:35:20.687Z,35.66
2019-04-25T11:36:20.718Z,35.96
2019-04-25T11:36:59.849Z,35.61
2019-04-25T11:37:59.793Z,33.47
2019-04-25T11:38:59.834Z,33.63
2019-04-25T11:40:20.898Z,33.04
2019-04-25T11:41:20.933Z,32.79
2019-04-25T11:41:59.936Z,31.86
2019-04-25T11:42:59.987Z,30.55
2019-04-25T11:44:00.508Z,30.39
2019-04-25T11:45:21.238Z,29.90
2019-04-25T11:46:21.199Z,30.24
2019-04-25T11:47:00.137Z,30.06
2019-04-25T11:48:00.151Z,30.32
2019-04-25T11:49:00.166Z,29.44
2019-04-25T11:50:21.238Z,29.28
2019-04-25T11:51:21.276Z,28.82
2019-04-25T11:52:00.258Z,28.38
2019-04-25T11:53:00.952Z,27.95
2019-04-25T11:54:00.373Z,27.90
2019-04-25T11:55:21.397Z,28.18
2019-04-25T11:56:21.435Z,28.12
2019-04-25T11:57:00.405Z,27.82
2019-04-25T11:58:00.463Z,27.79
2019-04-25T11:59:00.502Z,27.85
2019-04-25T12:00:22.365Z,27.82
2019-04-25T12:01:21.575Z,27.83
2019-04-25T12:02:00.591Z,27.16
2019-04-25T12:03:00.622Z,26.91
2019-04-25T12:04:00.651Z,26.63
2019-04-25T12:05:23.403Z,26.93
2019-04-25T12:06:21.737Z,27.03
2019-04-25T12:07:00.751Z,26.91
2019-04-25T12:08:00.785Z,26.78
2019-04-25T12:09:00.811Z,26.83
2019-04-25T12:10:21.869Z,27.01
2019-04-25T12:11:23.420Z,26.64
2019-04-25T12:12:00.913Z,26.49
2019-04-25T12:13:01.176Z,26.34
2019-04-25T12:14:00.984Z,26.41
2019-04-25T12:15:22.017Z,26.34
2019-04-25T12:16:22.054Z,26.31
2019-04-25T12:17:01.059Z,26.34
2019-04-25T12:18:01.097Z,26.08
2019-04-25T12:19:01.157Z,26.11
2019-04-25T12:20:22.189Z,25.99
2019-04-25T12:21:23.863Z,26.01
2019-04-25T12:22:01.295Z,26.04
2019-04-25T12:23:08.064Z,25.89
2019-04-25T12:24:03.751Z,25.93
2019-04-25T12:25:23.647Z,25.71
2019-04-25T12:26:24.223Z,25.67
2019-04-25T12:27:01.378Z,25.88
2019-04-25T12:28:02.404Z,26.13
2019-04-25T12:29:01.443Z,26.26
2019-04-25T12:30:34.760Z,26.45
2019-04-25T12:31:23.812Z,26.44
2019-04-25T12:32:01.555Z,26.46
2019-04-25T12:33:03.254Z,26.51
2019-04-25T12:34:03.302Z,26.59
2019-04-25T12:35:24.116Z,26.64
2019-04-25T12:36:23.932Z,26.61
2019-04-25T12:37:01.738Z,26.56
2019-04-25T12:38:03.459Z,26.61
2019-04-25T12:39:03.317Z,26.51
2019-04-25T12:40:24.234Z,26.37
2019-04-25T12:41:22.841Z,26.26
2019-04-25T12:42:01.848Z,26.07
2019-04-25T12:43:03.162Z,25.96
2019-04-25T12:44:03.583Z,26.15
2019-04-25T12:45:24.162Z,26.04
2019-04-25T12:46:22.975Z,26.10
2019-04-25T12:47:03.351Z,25.98
2019-04-25T12:48:02.021Z,26.01
2019-04-25T12:49:02.037Z,26.03
2019-04-25T12:50:24.616Z,25.99
2019-04-25T12:51:23.139Z,25.95
2019-04-25T12:52:02.149Z,25.92